Terminal Aerodrome Forecast
Issued by NWS

Home | Current Version | Previous Version | Text Only | Print | Product List | Glossary On
Versions: 1 2 3 4 5 6 7 8 9 10 11 12 13 14 15 16 17 18 19
000
FTUS45 KGJT 190136 AAA
TAFDRO
TAF AMD
KDRO 190136Z 1902/1924 23010KT P6SM FEW100 BKN250
      TEMPO 1905/1909 23013G18KT
     FM190900 22008KT P6SM VCSH SCT060 OVC120
      TEMPO 1909/1912 -RA BKN060
     FM191200 22006KT P6SM -RA OVC050
     FM191800 23009KT P6SM VCSH SCT050 BKN090=

USA.gov is the U.S. government's official web portal to all federal, state and local government web resources and services.